Time;durP1;ratioP1;P1;durP2;ratioP2;P2;SDS_P1;SDS_P2;PMS_P1;PMS_P2;Temp;Humidity;BMP_temperature;BMP_pressure;BME280_temperature;BME280_humidity;BME280_pressure;Samples;Min_cycle;Max_cycle;Signal;HPM_P1;HPM_P2
2022/01/25 05:05:30;;;;;;;25.92;14.40;;;;;;;-0.60;54.24;102151.06;5605682;31;78252;-54
2022/01/25 05:08:39;;;;;;;26.10;14.48;;;;;;;-0.60;54.24;102151.06;5602496;31;33409;-54
2022/01/25 05:11:46;;;;;;;26.25;15.73;;;;;;;-1.19;57.40;102152.91;5603263;31;33261;-54
2022/01/25 05:14:59;;;;;;;25.90;13.50;;;;;;;-1.16;61.48;102149.13;5592928;31;34272;-55
2022/01/25 05:18:11;;;;;;;27.33;14.38;;;;;;;-1.23;56.85;102141.03;5587601;31;33662;-55
2022/01/25 05:24:37;;;;;;;24.52;15.65;;;;;;;-0.97;55.67;102130.44;5584717;31;34153;-55
2022/01/25 05:27:39;;;;;;;25.27;15.45;;;;;;;-0.85;56.77;102125.69;5599418;31;34706;-55
2022/01/25 05:30:41;;;;;;;24.58;14.30;;;;;;;-0.56;57.54;102119.97;5598031;31;33872;-54
2022/01/25 05:33:44;;;;;;;24.55;15.05;;;;;;;-0.29;57.60;102124.91;5601019;31;34289;-55
2022/01/25 05:36:46;;;;;;;27.23;14.40;;;;;;;-0.40;70.53;102122.59;5586065;31;33549;-55
2022/01/25 05:39:51;;;;;;;20.65;12.90;;;;;;;-0.23;61.23;102123.44;5584736;31;33794;-55
2022/01/25 05:46:14;;;;;;;23.42;15.20;;;;;;;0.00;59.18;102120.94;5564010;32;33796;-55
2022/01/25 05:49:17;;;;;;;23.02;14.20;;;;;;;0.05;58.52;102112.50;5574229;32;34292;-55
2022/01/25 05:52:19;;;;;;;26.90;14.25;;;;;;;0.60;63.81;102106.41;5566707;32;34374;-55
2022/01/25 05:55:21;;;;;;;22.00;13.18;;;;;;;0.49;55.09;102102.31;5568490;32;33605;-55
2022/01/25 05:58:24;;;;;;;22.35;14.30;;;;;;;0.35;63.02;102100.41;5568549;32;33519;-55
2022/01/25 06:01:26;;;;;;;23.33;13.60;;;;;;;0.51;54.92;102107.44;5566551;32;33325;-55
2022/01/25 06:04:29;;;;;;;28.90;14.90;;;;;;;0.44;57.18;102112.56;5580448;32;33661;-55
2022/01/25 06:07:32;;;;;;;22.95;13.57;;;;;;;0.27;54.42;102103.91;5582920;31;33924;-55
2022/01/25 06:10:34;;;;;;;24.52;14.10;;;;;;;0.32;55.29;102113.94;5582584;32;33562;-55
2022/01/25 06:13:36;;;;;;;24.90;13.65;;;;;;;0.55;58.11;102112.19;5582766;31;33731;-55
2022/01/25 06:16:39;;;;;;;23.60;14.57;;;;;;;0.69;58.21;102119.38;5569783;32;34251;-56
2022/01/25 06:19:43;;;;;;;24.27;14.45;;;;;;;0.72;53.87;102107.66;5569753;32;33300;-55
2022/01/25 06:22:46;;;;;;;23.25;14.05;;;;;;;0.55;55.21;102104.28;5569918;32;34275;-55
2022/01/25 06:25:48;;;;;;;24.92;14.57;;;;;;;0.64;54.84;102099.78;5563559;32;33418;-55
2022/01/25 06:28:51;;;;;;;25.02;15.27;;;;;;;0.78;60.15;102096.41;5550352;32;33638;-55
2022/01/25 06:31:53;;;;;;;21.58;13.93;;;;;;;0.68;55.47;102093.97;5564669;32;33775;-55
2022/01/25 06:34:55;;;;;;;25.15;15.00;;;;;;;0.92;63.32;102097.47;5569620;32;33594;-55
2022/01/25 06:37:57;;;;;;;25.33;15.75;;;;;;;0.87;54.79;102087.47;5563319;32;33598;-55
2022/01/25 06:41:00;;;;;;;23.80;14.02;;;;;;;0.88;55.84;102075.06;5551680;32;33653;-55
2022/01/25 06:44:03;;;;;;;27.10;15.20;;;;;;;0.77;54.93;102073.66;5566240;31;33864;-55
2022/01/25 06:47:06;;;;;;;24.98;13.65;;;;;;;0.86;54.56;102077.91;5562807;32;34382;-55
2022/01/25 06:50:09;;;;;;;29.48;15.18;;;;;;;0.88;66.53;102083.81;5549801;32;33693;-55
2022/01/25 06:53:15;;;;;;;27.08;15.27;;;;;;;0.75;54.74;102088.03;5564195;32;33589;-55
2022/01/25 06:56:17;;;;;;;25.90;15.35;;;;;;;0.71;54.84;102082.25;5568730;32;33599;-55
2022/01/25 06:59:20;;;;;;;27.92;16.52;;;;;;;0.73;57.37;102085.56;5556093;32;33355;-55
2022/01/25 07:02:22;;;;;;;27.30;16.70;;;;;;;0.61;57.36;102074.56;5558269;32;33585;-55
2022/01/25 07:05:26;;;;;;;27.33;17.05;;;;;;;0.76;55.80;102085.19;5561814;32;33718;-55
2022/01/25 07:08:28;;;;;;;33.70;17.45;;;;;;;1.43;60.25;102076.69;5552698;32;34060;-55
2022/01/25 07:11:30;;;;;;;27.25;16.85;;;;;;;1.38;54.01;102071.91;5566724;32;34308;-55
2022/01/25 07:14:32;;;;;;;29.60;16.23;;;;;;;1.17;54.36;102075.22;5567295;32;33660;-55
2022/01/25 07:17:35;;;;;;;28.00;17.58;;;;;;;1.13;61.13;102073.94;5549494;32;33735;-57
2022/01/25 07:20:37;;;;;;;29.05;17.87;;;;;;;1.22;55.01;102063.28;5549387;32;33609;-58
2022/01/25 07:23:44;;;;;;;32.80;18.85;;;;;;;1.14;55.43;102074.75;5549669;32;34323;-57
2022/01/25 07:26:47;;;;;;;30.60;18.42;;;;;;;1.02;55.97;102078.78;5565749;32;33707;-57
2022/01/25 07:29:49;;;;;;;36.38;20.15;;;;;;;0.89;59.18;102080.19;5567873;32;33598;-58
2022/01/25 07:32:52;;;;;;;32.47;19.10;;;;;;;0.97;56.53;102079.31;5569294;32;34072;-57
2022/01/25 07:35:58;;;;;;;;;;;;;;;0.72;55.00;102077.81;5568022;32;34288;-57
2022/01/25 07:39:11;;;;;;;33.78;20.05;;;;;;;0.90;61.08;102081.00;5568614;32;34593;-57
2022/01/25 07:42:16;;;;;;;34.65;21.00;;;;;;;1.69;62.54;102086.84;5568775;32;34346;-57
2022/01/25 07:45:21;;;;;;;38.65;19.37;;;;;;;1.40;55.04;102085.78;5553233;32;34450;-57
2022/01/25 07:48:31;;;;;;;36.58;21.42;;;;;;;1.50;63.37;102084.72;5549512;32;34050;-57
2022/01/25 07:51:35;;;;;;;37.47;20.27;;;;;;;1.21;55.63;102078.31;5558369;32;32306;-57
2022/01/25 07:54:38;;;;;;;36.28;20.25;;;;;;;1.27;58.82;102076.81;5568043;32;34337;-57
2022/01/25 07:57:40;;;;;;;29.95;18.58;;;;;;;1.21;56.08;102080.97;5564883;32;33664;-57
2022/01/25 08:00:42;;;;;;;43.10;20.55;;;;;;;1.76;57.81;102087.78;5565288;32;33593;-57
2022/01/25 08:03:45;;;;;;;37.13;19.77;;;;;;;1.39;58.42;102083.28;5566104;32;34403;-57
2022/01/25 08:06:49;;;;;;;32.50;19.17;;;;;;;1.26;56.40;102075.13;5565021;32;34336;-57
2022/01/25 08:09:52;;;;;;;28.42;18.30;;;;;;;1.35;56.29;102076.72;5565343;32;33246;-57
2022/01/25 08:12:55;;;;;;;36.65;20.48;;;;;;;1.24;65.30;102083.25;5568063;32;33343;-57
2022/01/25 08:16:00;;;;;;;33.72;19.75;;;;;;;1.28;59.49;102075.78;5557334;32;33771;-58
2022/01/25 08:19:05;;;;;;;33.72;19.67;;;;;;;1.22;63.46;102079.94;5566221;32;32246;-57
2022/01/25 08:22:11;;;;;;;36.60;19.67;;;;;;;1.40;57.06;102067.28;5560535;32;34417;-58
2022/01/25 08:25:17;;;;;;;32.70;19.17;;;;;;;1.58;56.43;102063.47;5558407;32;32154;-57
2022/01/25 08:28:27;;;;;;;32.50;19.45;;;;;;;1.60;55.93;102058.84;5565250;32;33351;-57
2022/01/25 08:31:30;;;;;;;30.35;20.08;;;;;;;1.44;56.49;102051.06;5567874;32;33566;-57
2022/01/25 08:34:37;;;;;;;31.23;19.00;;;;;;;1.39;56.72;102052.44;5567291;32;34328;-58
2022/01/25 08:37:45;;;;;;;33.72;20.70;;;;;;;1.49;56.90;102056.63;5566312;32;34209;-57
2022/01/25 08:40:48;;;;;;;32.97;19.95;;;;;;;1.60;56.02;102061.50;5566914;32;34452;-58
2022/01/25 08:43:54;;;;;;;35.30;20.52;;;;;;;1.52;56.05;102056.25;5565533;32;33626;-58
2022/01/25 08:47:03;;;;;;;36.78;21.45;;;;;;;1.61;57.49;102048.09;5567841;32;33495;-58
2022/01/25 08:50:09;;;;;;;36.95;21.48;;;;;;;1.55;57.93;102045.34;5568148;32;34216;-58
2022/01/25 08:53:14;;;;;;;33.17;21.58;;;;;;;1.68;57.46;102047.37;5567842;32;34437;-58
2022/01/25 08:56:17;;;;;;;37.67;22.10;;;;;;;1.69;57.35;102041.06;5568300;32;32227;-58
2022/01/25 08:59:29;;;;;;;30.95;20.48;;;;;;;1.82;57.05;102038.62;5557486;32;33521;-58
2022/01/25 09:02:31;;;;;;;36.17;21.52;;;;;;;1.91;68.06;102044.66;5560816;32;33885;-58
2022/01/25 09:05:35;;;;;;;35.50;22.00;;;;;;;1.94;57.85;102042.47;5549580;32;33544;-57
2022/01/25 09:08:38;;;;;;;33.95;20.70;;;;;;;2.19;59.27;102048.31;5566884;32;33703;-57
2022/01/25 09:11:42;;;;;;;37.38;22.62;;;;;;;2.33;65.18;102047.47;5567007;32;33646;-57
2022/01/25 09:14:45;;;;;;;35.38;22.65;;;;;;;2.51;57.68;102043.59;5567192;32;33904;-58
2022/01/25 09:17:48;;;;;;;38.72;24.02;;;;;;;2.58;56.65;102044.50;5566935;32;33700;-58
2022/01/25 09:20:51;;;;;;;44.55;28.38;;;;;;;2.63;63.10;102043.94;5566612;32;33218;-58
2022/01/25 09:23:54;;;;;;;40.03;24.10;;;;;;;2.82;59.32;102049.47;5560286;32;34325;-58
2022/01/25 09:26:56;;;;;;;42.05;24.42;;;;;;;2.88;55.87;102037.31;5552178;32;34226;-58
2022/01/25 09:29:59;;;;;;;43.53;24.08;;;;;;;2.65;56.29;102034.81;5566341;32;33813;-58
2022/01/25 09:33:01;;;;;;;44.80;27.13;;;;;;;3.04;65.66;102037.03;5560978;32;33590;-58
2022/01/25 09:36:04;;;;;;;37.55;24.05;;;;;;;3.35;60.74;102027.13;5563889;32;33649;-57
2022/01/25 09:39:07;;;;;;;45.83;27.52;;;;;;;3.51;70.36;102022.38;5565037;32;33704;-58
2022/01/25 09:42:11;;;;;;;47.13;28.02;;;;;;;3.62;62.19;102021.00;5565698;32;33742;-58
2022/01/25 09:45:13;;;;;;;41.15;24.48;;;;;;;3.74;62.69;102011.50;5559169;32;34359;-58
2022/01/25 09:48:17;;;;;;;50.08;27.55;;;;;;;4.03;62.75;102004.28;5557494;32;33144;-57
2022/01/25 09:51:20;;;;;;;49.13;29.55;;;;;;;4.18;58.11;102006.84;5560766;32;33283;-58
2022/01/25 09:54:22;;;;;;;50.20;31.52;;;;;;;4.32;60.51;102008.50;5568901;32;33907;-58
2022/01/25 09:57:24;;;;;;;40.83;24.42;;;;;;;4.18;53.54;102002.34;5567127;32;33611;-57
2022/01/25 10:00:29;;;;;;;41.47;24.52;;;;;;;3.72;56.24;101987.00;5557104;32;33821;-57
2022/01/25 10:03:37;;;;;;;35.08;22.50;;;;;;;4.14;57.10;101987.84;5569200;32;33275;-58
2022/01/25 10:06:39;;;;;;;45.53;24.75;;;;;;;3.85;57.89;101978.31;5565742;32;33622;-58
2022/01/25 10:09:42;;;;;;;35.88;21.33;;;;;;;3.82;58.39;101975.22;5569656;32;33737;-58
2022/01/25 10:12:45;;;;;;;46.15;21.55;;;;;;;3.65;63.10;101978.19;5568878;32;33874;-57
2022/01/25 10:16:01;;;;;;;38.05;22.48;;;;;;;4.10;71.72;101983.91;5567069;32;34067;-57
2022/01/25 10:19:07;;;;;;;36.65;22.05;;;;;;;4.23;56.99;101977.84;5565010;32;33976;-58
2022/01/25 10:22:14;;;;;;;39.80;23.35;;;;;;;3.90;58.52;101964.44;5567280;32;33678;-58
2022/01/25 10:25:37;;;;;;;40.00;22.90;;;;;;;3.90;58.64;101964.44;5563879;32;33960;-57
2022/01/25 10:28:39;;;;;;;41.75;25.15;;;;;;;4.07;59.79;101957.75;5568957;32;34356;-57
2022/01/25 10:31:44;;;;;;;53.10;24.83;;;;;;;4.12;58.46;101946.56;5567479;32;33668;-58
2022/01/25 10:34:49;;;;;;;40.90;23.70;;;;;;;4.22;59.40;101947.81;5569477;32;33647;-58
2022/01/25 10:37:51;;;;;;;32.90;21.37;;;;;;;4.78;58.18;101948.56;5568426;32;34234;-58
2022/01/25 10:41:06;;;;;;;37.33;22.65;;;;;;;4.77;70.04;101950.41;5569184;32;33706;-58
2022/01/25 10:44:08;;;;;;;38.88;22.48;;;;;;;4.81;59.83;101953.47;5568929;31;33780;-58
2022/01/25 10:47:11;;;;;;;37.72;23.40;;;;;;;4.61;59.17;101945.50;5554936;32;33828;-58
2022/01/25 10:50:22;;;;;;;36.17;21.87;;;;;;;4.57;57.79;101941.56;5552175;32;34338;-58
2022/01/25 10:53:25;;;;;;;34.35;20.65;;;;;;;4.70;58.02;101933.62;5567172;32;33753;-58
2022/01/25 10:56:42;;;;;;;37.08;23.08;;;;;;;4.92;69.38;101931.59;5567957;32;34312;-57
2022/01/25 10:59:57;;;;;;;42.95;22.50;;;;;;;4.75;56.61;101928.53;5564557;32;33928;-58
2022/01/25 11:03:01;;;;;;;39.97;23.02;;;;;;;4.67;57.74;101921.59;5568721;32;34255;-58
2022/01/25 11:06:23;;;;;;;40.03;24.10;;;;;;;4.53;57.91;101929.72;5549536;32;33573;-58
2022/01/25 11:09:27;;;;;;;36.25;22.35;;;;;;;4.51;57.78;101927.28;5561246;32;33883;-57
2022/01/25 11:12:36;;;;;;;35.53;22.50;;;;;;;4.61;60.81;101924.25;5566829;32;34053;-58
2022/01/25 11:16:02;;;;;;;36.40;23.58;;;;;;;4.67;65.01;101913.62;5561098;32;33609;-58
2022/01/25 11:19:05;;;;;;;33.85;22.02;;;;;;;4.93;57.10;101922.59;5568561;32;34454;-58
2022/01/25 11:22:09;;;;;;;39.05;23.45;;;;;;;4.99;56.44;101918.31;5561727;32;33700;-58
2022/01/25 11:25:17;;;;;;;33.65;21.55;;;;;;;5.00;55.61;101902.19;5562694;32;33633;-57
2022/01/25 11:28:19;;;;;;;39.38;22.05;;;;;;;4.93;56.07;101899.53;5563280;31;33231;-57
2022/01/25 11:31:23;;;;;;;33.05;20.85;;;;;;;4.95;56.48;101905.44;5562334;32;34426;-58
2022/01/25 11:34:27;;;;;;;36.70;21.73;;;;;;;5.06;56.15;101893.34;5559756;32;33690;-58
2022/01/25 11:37:41;;;;;;;30.23;19.67;;;;;;;5.08;56.48;101885.19;5564896;32;34311;-57
2022/01/25 11:40:46;;;;;;;33.85;19.85;;;;;;;5.29;59.30;101884.94;5568169;32;33664;-58
2022/01/25 11:44:11;;;;;;;32.53;20.50;;;;;;;5.16;55.65;101880.47;5564806;32;34432;-58
2022/01/25 11:47:17;;;;;;;30.27;19.48;;;;;;;5.07;57.01;101878.25;5564057;32;33804;-58
2022/01/25 11:50:25;;;;;;;32.35;19.25;;;;;;;5.01;56.73;101877.22;5562643;32;34359;-58
2022/01/25 11:53:29;;;;;;;27.95;18.98;;;;;;;4.85;56.92;101881.13;5568419;32;34246;-58
2022/01/25 11:56:32;;;;;;;26.05;17.55;;;;;;;5.05;59.17;101878.44;5568327;32;33633;-58
2022/01/25 11:59:35;;;;;;;35.22;19.70;;;;;;;5.20;56.82;101872.91;5567973;32;33535;-58
2022/01/25 12:02:45;;;;;;;31.98;20.15;;;;;;;5.38;58.63;101873.06;5565731;32;33745;-57
2022/01/25 12:06:20;;;;;;;30.62;19.83;;;;;;;5.33;55.85;101856.94;5567578;32;33352;-58
2022/01/25 12:09:42;;;;;;;33.10;20.15;;;;;;;5.40;56.03;101862.22;5565089;32;33970;-57
2022/01/25 12:13:23;;;;;;;34.88;20.08;;;;;;;5.81;57.32;101863.69;5561269;32;33892;-57
2022/01/25 12:16:27;;;;;;;34.35;20.30;;;;;;;5.67;55.96;101860.28;5567268;32;33684;-58
2022/01/25 12:19:54;;;;;;;31.65;21.23;;;;;;;5.37;56.46;101852.00;5566712;32;33644;-58
2022/01/25 12:23:12;;;;;;;34.92;21.23;;;;;;;5.32;55.92;101857.13;5564554;32;34129;-58
2022/01/25 12:27:00;;;;;;;31.77;19.67;;;;;;;5.00;57.15;101842.88;5566595;32;33649;-58
2022/01/25 12:30:08;;;;;;;29.90;19.27;;;;;;;5.04;59.05;101844.09;5567019;32;33673;-58
2022/01/25 12:33:20;;;;;;;28.92;18.10;;;;;;;5.06;58.29;101839.38;5566501;32;33559;-57
2022/01/25 12:36:35;;;;;;;29.92;19.27;;;;;;;5.08;58.28;101830.19;5563215;32;33810;-57
2022/01/25 12:39:38;;;;;;;30.25;19.48;;;;;;;5.02;58.29;101822.22;5555661;32;33786;-57
2022/01/25 12:42:40;;;;;;;31.23;20.27;;;;;;;4.89;57.72;101836.34;5564667;32;33732;-58
2022/01/25 12:45:46;;;;;;;34.30;22.52;;;;;;;4.83;59.42;101834.50;5559781;32;33772;-58
2022/01/25 12:48:52;;;;;;;35.88;23.02;;;;;;;4.92;57.63;101833.28;5567968;32;33740;-58
2022/01/25 12:51:57;;;;;;;38.30;22.02;;;;;;;5.27;57.62;101830.34;5563619;32;33647;-59
2022/01/25 12:55:00;;;;;;;35.78;21.55;;;;;;;5.33;55.99;101840.13;5567098;32;34433;-58
2022/01/25 12:58:04;;;;;;;34.15;21.77;;;;;;;5.20;56.45;101830.37;5563162;32;34348;-58
2022/01/25 13:01:10;;;;;;;39.05;22.00;;;;;;;4.99;57.95;101823.44;5567240;32;33670;-58
2022/01/25 13:04:14;;;;;;;34.38;20.95;;;;;;;4.97;56.38;101820.19;5566431;32;34433;-58
2022/01/25 13:07:16;;;;;;;32.83;21.65;;;;;;;4.90;58.55;101819.38;5567555;32;34310;-58
2022/01/25 13:10:24;;;;;;;35.50;21.08;;;;;;;4.84;57.18;101805.09;5567162;32;33722;-58
2022/01/25 13:13:43;;;;;;;41.58;24.20;;;;;;;4.98;59.99;101808.53;5567750;32;34270;-58
2022/01/25 13:16:51;;;;;;;36.80;22.90;;;;;;;4.87;57.78;101796.72;5567609;32;33768;-58
2022/01/25 13:20:01;;;;;;;34.60;21.17;;;;;;;4.87;60.81;101799.37;5548968;32;33631;-58
2022/01/25 13:23:04;;;;;;;37.28;22.42;;;;;;;4.84;62.83;101794.47;5565557;32;33593;-58
2022/01/25 13:26:14;;;;;;;37.72;23.77;;;;;;;4.72;58.26;101786.28;5569029;32;33729;-58
2022/01/25 13:32:43;;;;;;;38.88;25.30;;;;;;;4.71;59.58;101776.69;5569065;32;33992;-58
2022/01/25 13:35:49;;;;;;;39.28;23.67;;;;;;;4.69;58.81;101776.06;5566787;32;34584;-58
2022/01/25 13:38:51;;;;;;;41.00;23.92;;;;;;;4.75;58.30;101776.28;5550775;32;34298;-58
2022/01/25 13:42:04;;;;;;;35.85;23.30;;;;;;;4.76;58.45;101772.59;5550781;32;34358;-58
2022/01/25 13:48:29;;;;;;;39.03;22.35;;;;;;;4.84;58.96;101765.25;5548852;32;34412;-58
2022/01/25 13:51:47;;;;;;;34.17;22.37;;;;;;;4.58;60.34;101757.31;5568922;32;34485;-58
2022/01/25 13:55:07;;;;;;;35.67;22.83;;;;;;;4.60;62.66;101752.59;5557606;32;33668;-58
2022/01/25 13:58:30;;;;;;;38.33;23.00;;;;;;;4.66;60.26;101759.75;5559140;32;33434;-58
2022/01/25 14:01:36;;;;;;;37.97;23.65;;;;;;;4.78;58.64;101759.94;5554466;32;34419;-58
2022/01/25 14:04:39;;;;;;;35.38;23.75;;;;;;;4.64;59.87;101751.19;5567213;32;34350;-58
2022/01/25 14:07:41;;;;;;;34.40;23.67;;;;;;;4.57;59.98;101753.84;5569401;32;34637;-58
2022/01/25 14:10:47;;;;;;;41.08;25.67;;;;;;;4.75;60.38;101752.37;5569272;32;33494;-58
2022/01/25 14:23:56;;;;;;;40.15;25.80;;;;;;;4.57;62.96;101745.87;5568933;32;33615;-56
2022/01/25 14:27:25;;;;;;;35.35;24.37;;;;;;;4.56;60.72;101738.91;5569550;32;34250;-55
2022/01/25 14:30:35;;;;;;;37.67;23.83;;;;;;;4.56;60.82;101741.56;5569489;32;34058;-56
2022/01/25 14:33:37;;;;;;;38.30;25.27;;;;;;;4.56;61.54;101735.44;5569687;32;33923;-55
2022/01/25 14:36:43;;;;;;;37.85;24.33;;;;;;;4.61;60.71;101736.47;5568811;32;33657;-55
2022/01/25 14:39:45;;;;;;;38.28;24.60;;;;;;;4.71;61.76;101741.34;5567386;32;33779;-56
2022/01/25 14:42:47;;;;;;;37.47;23.92;;;;;;;4.57;62.27;101740.56;5569682;32;33676;-55
2022/01/25 14:46:00;;;;;;;40.45;24.83;;;;;;;4.50;62.05;101734.41;5563160;31;33893;-55
2022/01/25 14:49:05;;;;;;;40.05;24.60;;;;;;;4.73;61.12;101741.94;5550663;32;34458;-55
2022/01/25 14:52:09;;;;;;;39.05;24.15;;;;;;;4.81;62.30;101749.72;5555985;32;33579;-56
2022/01/25 14:55:20;;;;;;;42.22;25.15;;;;;;;4.86;62.55;101743.75;5564745;32;33776;-56
2022/01/25 15:01:49;;;;;;;38.22;24.27;;;;;;;4.98;61.55;101741.28;5549773;32;33702;-55
2022/01/25 15:04:55;;;;;;;37.90;24.15;;;;;;;4.90;62.14;101744.97;5549610;32;33724;-55
2022/01/25 15:07:58;;;;;;;40.47;24.15;;;;;;;4.86;62.03;101741.09;5549242;32;34601;-56
2022/01/25 15:11:01;;;;;;;37.08;25.77;;;;;;;4.89;61.95;101738.84;5549636;32;34192;-55
2022/01/25 15:14:10;;;;;;;35.95;24.27;;;;;;;4.79;62.33;101748.28;5549435;32;33664;-55
2022/01/25 15:17:12;;;;;;;37.60;22.85;;;;;;;4.92;62.93;101735.78;5550029;32;34596;-55
2022/01/25 15:20:16;;;;;;;37.65;24.52;;;;;;;4.87;62.54;101753.38;5549410;32;33643;-55
2022/01/25 15:23:22;;;;;;;35.05;23.73;;;;;;;4.84;68.33;101740.50;5549548;32;33665;-55
2022/01/25 15:26:27;;;;;;;40.10;23.77;;;;;;;4.80;62.59;101739.28;5549534;32;34341;-55
2022/01/25 15:29:29;;;;;;;38.55;24.48;;;;;;;4.71;67.78;101746.66;5549821;32;33603;-55
2022/01/25 15:32:32;;;;;;;39.17;25.08;;;;;;;4.53;63.48;101735.84;5549774;32;34071;-55
2022/01/25 15:35:34;;;;;;;37.40;23.17;;;;;;;4.40;64.03;101742.00;5549835;32;33708;-58
2022/01/25 15:38:36;;;;;;;33.40;22.73;;;;;;;4.26;64.60;101743.03;5549744;32;33722;-58
2022/01/25 15:41:39;;;;;;;40.00;24.92;;;;;;;4.44;65.03;101741.41;5549560;32;34003;-57
2022/01/25 15:44:50;;;;;;;35.58;23.87;;;;;;;4.50;64.18;101750.34;5549716;32;33877;-58
2022/01/25 15:47:52;;;;;;;38.95;26.17;;;;;;;4.60;65.55;101748.13;5548635;32;33864;-55
2022/01/25 15:50:54;;;;;;;40.17;25.37;;;;;;;4.86;62.97;101743.75;5549928;32;33671;-55
2022/01/25 15:53:58;;;;;;;36.13;24.55;;;;;;;4.95;64.36;101737.19;5549523;32;34292;-55
2022/01/25 15:57:02;;;;;;;40.08;25.20;;;;;;;4.89;65.65;101740.69;5549311;32;33685;-55
2022/01/25 16:00:06;;;;;;;39.05;26.85;;;;;;;4.83;62.38;101739.66;5549419;32;34197;-55
2022/01/25 16:03:10;;;;;;;34.58;23.67;;;;;;;4.77;63.10;101750.31;5549801;32;34369;-56
2022/01/25 16:06:13;;;;;;;35.60;23.48;;;;;;;5.11;71.62;101744.72;5549686;32;33680;-55
2022/01/25 16:09:16;;;;;;;42.55;26.15;;;;;;;5.38;76.61;101749.91;5549766;32;34231;-55
2022/01/25 16:12:19;;;;;;;37.17;24.35;;;;;;;5.63;63.24;101748.16;5549696;32;33687;-55
2022/01/25 16:15:22;;;;;;;35.50;24.23;;;;;;;5.47;67.96;101750.50;5549799;32;33769;-55
2022/01/25 16:18:24;;;;;;;35.38;24.08;;;;;;;5.27;61.94;101745.28;5549615;32;33745;-55
2022/01/25 16:21:26;;;;;;;40.12;25.55;;;;;;;5.11;70.96;101744.72;5549621;32;33667;-55
2022/01/25 16:24:29;;;;;;;38.00;24.98;;;;;;;5.67;70.70;101745.06;5549602;32;33377;-55
2022/01/25 16:27:31;;;;;;;36.85;24.75;;;;;;;5.29;72.60;101753.84;5549479;32;34374;-56
2022/01/25 16:30:36;;;;;;;41.30;25.50;;;;;;;5.35;69.94;101753.00;5549619;32;33948;-55
2022/01/25 16:33:38;;;;;;;37.63;24.60;;;;;;;5.38;62.75;101752.56;5549448;32;33633;-56
2022/01/25 16:36:42;;;;;;;34.92;23.48;;;;;;;5.16;63.09;101754.69;5549483;32;34018;-55
2022/01/25 16:39:44;;;;;;;38.90;26.83;;;;;;;5.46;73.24;101762.16;5549295;32;34342;-55
2022/01/25 16:42:47;;;;;;;39.33;26.30;;;;;;;5.38;62.88;101757.91;5549440;32;34349;-56
2022/01/25 16:45:50;;;;;;;42.55;27.75;;;;;;;5.29;62.77;101746.66;5548744;32;34312;-56
